createdAt,value
2023-03-04T00:02:28.388Z,3.27
2023-03-04T00:05:00.169Z,3.20
2023-03-04T00:07:31.961Z,3.00
2023-03-04T00:10:04.562Z,2.90
2023-03-04T00:12:36.303Z,3.27
2023-03-04T00:15:08.601Z,3.00
2023-03-04T00:17:40.296Z,3.57
2023-03-04T00:20:12.643Z,2.50
2023-03-04T00:22:44.441Z,2.90
2023-03-04T00:25:16.436Z,3.03
2023-03-04T00:27:48.441Z,2.63
2023-03-04T00:30:20.273Z,2.77
2023-03-04T00:32:52.038Z,3.30
2023-03-04T00:35:23.912Z,2.60
2023-03-04T00:37:55.648Z,2.73
2023-03-04T00:40:27.655Z,3.67
2023-03-04T00:42:59.448Z,2.73
2023-03-04T00:45:31.199Z,2.83
2023-03-04T00:48:03.059Z,2.93
2023-03-04T00:50:34.848Z,3.67
2023-03-04T00:53:06.776Z,4.53
2023-03-04T00:55:38.563Z,2.97
2023-03-04T00:58:10.305Z,3.40
2023-03-04T01:00:42.037Z,3.03
2023-03-04T01:03:14.105Z,3.07
2023-03-04T01:05:45.930Z,3.50
2023-03-04T01:08:17.671Z,2.83
2023-03-04T01:10:49.402Z,3.23
2023-03-04T01:13:21.382Z,3.10
2023-03-04T01:15:53.874Z,3.43
2023-03-04T01:18:25.709Z,3.40
2023-03-04T01:20:57.545Z,2.13
2023-03-04T01:23:29.339Z,3.10
2023-03-04T01:26:01.077Z,2.77
2023-03-04T01:28:35.812Z,2.87
2023-03-04T01:31:07.817Z,3.03
2023-03-04T01:33:39.655Z,3.73
2023-03-04T01:36:11.812Z,3.13
2023-03-04T01:38:43.559Z,3.40
2023-03-04T01:41:18.955Z,4.00
2023-03-04T01:43:51.047Z,3.23
2023-03-04T01:46:23.862Z,4.00
2023-03-04T01:48:57.054Z,2.90
2023-03-04T01:51:28.875Z,3.73
2023-03-04T01:54:00.606Z,3.20
2023-03-04T01:56:37.605Z,4.00
2023-03-04T01:59:20.042Z,2.53
2023-03-04T02:01:57.372Z,3.07
2023-03-04T02:04:32.012Z,2.87
2023-03-04T02:07:04.745Z,3.87
2023-03-04T02:09:37.038Z,2.90
2023-03-04T02:12:08.796Z,3.60
2023-03-04T02:14:40.653Z,3.00
2023-03-04T02:17:13.190Z,2.43
2023-03-04T02:19:55.258Z,4.50
2023-03-04T02:22:27.023Z,2.93
2023-03-04T02:25:10.201Z,2.80
2023-03-04T02:27:42.089Z,2.93
2023-03-04T02:30:19.975Z,2.53
2023-03-04T02:32:52.978Z,2.80
2023-03-04T02:35:24.794Z,2.40
2023-03-04T02:37:56.584Z,4.43
2023-03-04T02:40:33.144Z,3.10
2023-03-04T02:43:04.971Z,3.50
2023-03-04T02:45:41.472Z,4.00
2023-03-04T02:48:17.607Z,3.17
2023-03-04T02:50:52.261Z,3.93
2023-03-04T02:53:25.476Z,3.00
2023-03-04T02:55:57.862Z,1.93
2023-03-04T02:58:31.686Z,3.20
2023-03-04T03:01:04.607Z,2.63
2023-03-04T03:03:36.373Z,3.40
2023-03-04T03:06:08.907Z,3.43
2023-03-04T03:08:40.684Z,3.30
2023-03-04T03:11:12.846Z,2.87
2023-03-04T03:13:44.747Z,2.73
2023-03-04T03:16:16.794Z,3.17
2023-03-04T03:18:48.572Z,2.07
2023-03-04T03:21:20.389Z,3.50
2023-03-04T03:23:52.203Z,3.43
2023-03-04T03:26:24.000Z,3.50
2023-03-04T03:28:55.978Z,3.13
2023-03-04T03:31:27.795Z,3.07
2023-03-04T03:33:59.578Z,3.43
2023-03-04T03:36:32.605Z,3.43
2023-03-04T03:39:04.400Z,3.20
2023-03-04T03:41:36.122Z,2.57
2023-03-04T03:44:08.323Z,2.70
2023-03-04T03:46:40.259Z,3.73
2023-03-04T03:49:12.170Z,3.50
2023-03-04T03:51:43.906Z,3.00
2023-03-04T03:54:15.754Z,3.27
2023-03-04T03:56:47.497Z,3.03
2023-03-04T03:59:19.306Z,3.30
2023-03-04T04:01:51.367Z,3.00
2023-03-04T04:04:23.197Z,2.50
2023-03-04T04:06:54.981Z,2.03
2023-03-04T04:09:26.775Z,2.47
2023-03-04T04:11:58.502Z,3.60
2023-03-04T04:14:30.228Z,3.27
2023-03-04T04:17:01.978Z,3.53
2023-03-04T04:19:33.813Z,2.47
2023-03-04T04:22:05.540Z,3.23
2023-03-04T04:24:37.278Z,2.27
2023-03-04T04:27:09.405Z,2.90
2023-03-04T04:29:41.483Z,3.17
2023-03-04T04:32:13.262Z,3.43
2023-03-04T04:34:45.029Z,2.47
2023-03-04T04:37:16.809Z,4.33
2023-03-04T04:39:48.554Z,3.57
2023-03-04T04:42:20.299Z,3.57
2023-03-04T04:44:52.593Z,3.20
2023-03-04T04:47:24.720Z,2.73
2023-03-04T04:49:56.441Z,3.70
2023-03-04T04:52:28.219Z,3.37
2023-03-04T04:54:59.921Z,4.40
2023-03-04T04:57:31.725Z,3.57
2023-03-04T05:00:05.587Z,2.97
2023-03-04T05:02:37.608Z,3.57
2023-03-04T05:05:09.494Z,2.80
2023-03-04T05:07:41.330Z,2.40
2023-03-04T05:10:13.029Z,4.10
2023-03-04T05:12:45.250Z,2.53
2023-03-04T05:15:17.181Z,2.87
2023-03-04T05:17:48.898Z,3.43
2023-03-04T05:20:20.641Z,2.87
2023-03-04T05:22:52.347Z,4.03
2023-03-04T05:25:24.136Z,3.50
2023-03-04T05:27:55.943Z,3.03
2023-03-04T05:30:28.299Z,2.43
2023-03-04T05:33:00.081Z,2.67
2023-03-04T05:35:31.910Z,3.07
2023-03-04T05:38:09.432Z,2.63
2023-03-04T05:40:41.741Z,2.73
2023-03-04T05:43:13.749Z,2.63
2023-03-04T05:45:45.432Z,3.37
2023-03-04T05:48:17.321Z,2.93
2023-03-04T05:50:57.710Z,2.83
2023-03-04T05:53:29.489Z,2.93
2023-03-04T05:56:06.164Z,3.07
2023-03-04T05:58:38.323Z,3.53
2023-03-04T06:01:10.550Z,2.93
2023-03-04T06:03:45.362Z,3.03
2023-03-04T06:06:17.385Z,2.33
2023-03-04T06:08:49.135Z,2.63
2023-03-04T06:11:20.845Z,3.23
2023-03-04T06:13:52.675Z,2.93
2023-03-04T06:16:24.559Z,3.17
2023-03-04T06:18:56.400Z,2.70
2023-03-04T06:21:28.165Z,3.67
2023-03-04T06:23:59.909Z,2.77
2023-03-04T06:26:31.645Z,3.50
2023-03-04T06:29:04.231Z,3.73
2023-03-04T06:31:36.125Z,3.67
2023-03-04T06:34:08.879Z,3.47
2023-03-04T06:36:40.588Z,2.83
2023-03-04T06:39:12.404Z,2.40
2023-03-04T06:41:44.274Z,2.90
2023-03-04T06:44:16.050Z,2.83
2023-03-04T06:46:47.817Z,3.27
2023-03-04T06:49:19.697Z,2.63
2023-03-04T06:51:51.504Z,2.23
2023-03-04T06:54:23.344Z,4.07
2023-03-04T06:56:55.082Z,4.07
2023-03-04T06:59:26.814Z,4.13
2023-03-04T07:01:58.631Z,2.60
2023-03-04T07:04:30.409Z,3.53
2023-03-04T07:07:02.101Z,3.93
2023-03-04T07:09:33.992Z,3.80
2023-03-04T07:12:05.932Z,2.60
2023-03-04T07:14:37.730Z,3.03
2023-03-04T07:17:09.481Z,3.70
2023-03-04T07:19:41.913Z,2.77
2023-03-04T07:22:13.708Z,3.53
2023-03-04T07:24:45.453Z,3.77
2023-03-04T07:27:17.153Z,3.13
2023-03-04T07:29:48.910Z,3.40
2023-03-04T07:32:20.704Z,3.40
2023-03-04T07:34:52.645Z,3.33
2023-03-04T07:37:24.372Z,3.37
2023-03-04T07:39:56.172Z,3.27
2023-03-04T07:42:27.938Z,2.73
2023-03-04T07:45:09.749Z,2.83
2023-03-04T07:47:41.447Z,3.57
2023-03-04T07:50:14.682Z,3.23
2023-03-04T07:52:48.662Z,3.43
2023-03-04T07:55:20.436Z,3.60
2023-03-04T07:57:52.161Z,2.83
2023-03-04T08:00:24.190Z,3.67
2023-03-04T08:02:55.983Z,3.10
2023-03-04T08:05:27.750Z,3.83
2023-03-04T08:07:59.874Z,3.73
2023-03-04T08:10:31.653Z,4.27
2023-03-04T08:13:03.421Z,3.27
2023-03-04T08:15:39.565Z,3.93
2023-03-04T08:18:12.419Z,3.33
2023-03-04T08:20:44.206Z,3.77
2023-03-04T08:23:15.905Z,2.63
2023-03-04T08:25:47.838Z,3.57
2023-03-04T08:28:19.597Z,3.10
2023-03-04T08:30:54.941Z,3.53
2023-03-04T08:33:26.703Z,2.80
2023-03-04T08:35:58.883Z,3.70
2023-03-04T08:38:31.924Z,2.70
2023-03-04T08:41:04.303Z,3.53
2023-03-04T08:43:36.389Z,3.17
2023-03-04T08:46:08.167Z,2.23
2023-03-04T08:48:40.273Z,3.33
2023-03-04T08:51:13.774Z,1.73
2023-03-04T08:53:46.145Z,2.63
2023-03-04T08:56:18.434Z,3.30
2023-03-04T08:58:50.162Z,3.20
2023-03-04T09:01:22.076Z,2.53
2023-03-04T09:03:54.111Z,3.07
2023-03-04T09:06:25.978Z,3.43
2023-03-04T09:08:57.717Z,2.50
2023-03-04T09:11:29.645Z,4.17
2023-03-04T09:14:01.332Z,3.73
2023-03-04T09:16:33.142Z,2.67
2023-03-04T09:19:04.855Z,3.73
2023-03-04T09:21:36.779Z,3.13
2023-03-04T09:24:08.658Z,3.23
2023-03-04T09:26:40.407Z,3.43
2023-03-04T09:29:12.123Z,3.13
2023-03-04T09:31:43.954Z,3.37
2023-03-04T09:34:15.735Z,3.13
2023-03-04T09:36:48.091Z,2.67
2023-03-04T09:39:19.827Z,3.70
2023-03-04T09:41:57.703Z,2.67
2023-03-04T09:44:40.802Z,3.53
2023-03-04T09:47:15.488Z,3.67
2023-03-04T09:49:56.948Z,2.60
2023-03-04T09:52:43.951Z,3.17
2023-03-04T09:55:28.085Z,2.83
2023-03-04T09:58:35.574Z,3.03
2023-03-04T10:01:26.748Z,2.83
2023-03-04T10:04:26.622Z,3.20
2023-03-04T10:06:58.704Z,2.97
2023-03-04T10:09:54.606Z,1.93
2023-03-04T10:12:31.340Z,4.17
2023-03-04T10:15:18.507Z,2.47
2023-03-04T10:17:56.321Z,3.10
2023-03-04T10:20:38.182Z,2.83
2023-03-04T10:23:15.178Z,2.87
2023-03-04T10:25:47.296Z,3.33
2023-03-04T10:28:27.486Z,2.47
2023-03-04T10:31:17.325Z,3.10
2023-03-04T10:33:49.878Z,3.13
2023-03-04T10:36:30.630Z,2.60
2023-03-04T10:39:17.570Z,3.77
2023-03-04T10:42:15.063Z,3.30
2023-03-04T10:44:57.041Z,4.43
2023-03-04T10:47:32.670Z,2.67
2023-03-04T10:50:05.748Z,3.47
2023-03-04T10:52:47.278Z,4.07
2023-03-04T10:55:30.736Z,3.57
2023-03-04T10:58:06.738Z,4.13
2023-03-04T11:00:38.542Z,3.90
2023-03-04T11:03:21.804Z,3.33
2023-03-04T11:06:13.833Z,3.97
2023-03-04T11:08:54.188Z,3.50
2023-03-04T11:11:37.630Z,4.13
2023-03-04T11:14:24.136Z,3.67
2023-03-04T11:17:17.114Z,4.30
2023-03-04T11:20:05.246Z,3.37
2023-03-04T11:22:37.970Z,4.33
2023-03-04T11:25:30.909Z,3.97
2023-03-04T11:28:11.531Z,3.07
2023-03-04T11:30:50.261Z,3.63
2023-03-04T11:33:33.039Z,4.50
2023-03-04T11:36:19.790Z,3.40
2023-03-04T11:38:52.033Z,4.30
2023-03-04T11:41:49.041Z,5.27
2023-03-04T11:44:20.880Z,5.43
2023-03-04T11:47:17.391Z,5.07
2023-03-04T11:49:49.152Z,4.10
2023-03-04T11:52:44.658Z,4.60
2023-03-04T11:55:28.314Z,4.33
2023-03-04T11:58:37.294Z,4.67
2023-03-04T12:01:25.745Z,4.60
2023-03-04T12:04:22.832Z,3.90
2023-03-04T12:07:21.122Z,4.33
2023-03-04T12:10:27.688Z,4.07
2023-03-04T12:13:36.412Z,5.00
2023-03-04T12:16:20.593Z,3.77
2023-03-04T12:19:04.066Z,4.97
2023-03-04T12:21:44.571Z,4.37
2023-03-04T12:24:26.563Z,5.33
2023-03-04T12:27:18.535Z,4.97
2023-03-04T12:30:17.626Z,4.03
2023-03-04T12:33:16.194Z,4.50
2023-03-04T12:36:38.378Z,4.17
2023-03-04T12:39:42.716Z,4.27
2023-03-04T12:42:55.605Z,4.07
2023-03-04T12:45:59.405Z,4.93
2023-03-04T12:48:39.226Z,5.23
2023-03-04T12:51:16.811Z,4.83
2023-03-04T12:53:48.492Z,5.53
2023-03-04T12:56:37.078Z,4.43
2023-03-04T12:59:20.160Z,4.70
2023-03-04T13:02:07.217Z,5.73
2023-03-04T13:05:15.278Z,5.13
2023-03-04T13:07:55.011Z,6.30
2023-03-04T13:10:26.806Z,6.20
2023-03-04T13:13:03.214Z,4.73
2023-03-04T13:15:37.599Z,5.07
2023-03-04T13:18:31.755Z,5.53
2023-03-04T13:21:12.306Z,4.57
2023-03-04T13:23:44.129Z,4.90
2023-03-04T13:26:34.596Z,5.67
2023-03-04T13:29:14.096Z,4.60
2023-03-04T13:32:10.277Z,6.00
2023-03-04T13:34:48.944Z,4.97
2023-03-04T13:37:26.350Z,5.07
2023-03-04T13:40:23.378Z,6.27
2023-03-04T13:42:55.226Z,4.87
2023-03-04T13:45:37.383Z,4.87
2023-03-04T13:48:26.602Z,5.90
2023-03-04T13:50:59.135Z,4.97
2023-03-04T13:53:49.889Z,6.20
2023-03-04T13:56:29.071Z,3.83
2023-03-04T13:59:16.283Z,4.93
2023-03-04T14:01:47.946Z,4.13
2023-03-04T14:04:26.873Z,4.03
2023-03-04T14:07:00.432Z,3.80
2023-03-04T14:09:35.215Z,4.17
2023-03-04T14:12:16.030Z,3.63
2023-03-04T14:14:50.116Z,5.40
2023-03-04T14:17:35.166Z,4.87
2023-03-04T14:20:22.157Z,4.63
2023-03-04T14:22:54.278Z,4.73
2023-03-04T14:25:36.540Z,3.93
2023-03-04T14:28:17.595Z,4.70
2023-03-04T14:30:57.112Z,5.40
2023-03-04T14:33:30.946Z,4.60
2023-03-04T14:36:03.402Z,5.40
2023-03-04T14:38:38.275Z,4.33
2023-03-04T14:41:24.825Z,4.40
2023-03-04T14:44:03.954Z,4.00
2023-03-04T14:46:41.546Z,4.80
2023-03-04T14:49:15.124Z,5.13
2023-03-04T14:51:55.176Z,4.13
2023-03-04T14:54:35.899Z,5.07
2023-03-04T14:57:27.849Z,3.77
2023-03-04T15:00:34.159Z,4.20
2023-03-04T15:03:24.147Z,4.40
2023-03-04T15:05:58.339Z,4.63
2023-03-04T15:08:40.281Z,5.00
2023-03-04T15:11:22.869Z,4.90
2023-03-04T15:13:57.229Z,4.23
2023-03-04T15:16:56.773Z,4.60
2023-03-04T15:19:29.500Z,4.40
2023-03-04T15:22:06.555Z,4.97
2023-03-04T15:24:38.302Z,4.07
2023-03-04T15:27:12.598Z,5.13
2023-03-04T15:29:44.362Z,5.87
2023-03-04T15:32:16.112Z,3.83
2023-03-04T15:34:47.830Z,4.77
2023-03-04T15:37:28.501Z,4.50
2023-03-04T15:40:00.400Z,4.77
2023-03-04T15:42:32.119Z,5.33
2023-03-04T15:45:20.393Z,4.23
2023-03-04T15:47:52.237Z,5.00
2023-03-04T15:50:28.713Z,3.67
2023-03-04T15:53:03.238Z,5.33
2023-03-04T15:55:35.303Z,3.53
2023-03-04T15:58:09.250Z,4.90
2023-03-04T16:00:41.097Z,4.60
2023-03-04T16:03:16.830Z,4.20
2023-03-04T16:05:51.378Z,4.57
2023-03-04T16:08:27.216Z,4.33
2023-03-04T16:10:58.997Z,4.87
2023-03-04T16:13:30.686Z,5.77
2023-03-04T16:16:02.630Z,4.83
2023-03-04T16:18:34.443Z,6.10
2023-03-04T16:21:07.804Z,5.53
2023-03-04T16:23:41.951Z,4.57
2023-03-04T16:26:24.648Z,4.77
2023-03-04T16:28:56.394Z,5.03
2023-03-04T16:31:28.196Z,5.03
2023-03-04T16:33:59.960Z,6.03
2023-03-04T16:36:31.983Z,4.83
2023-03-04T16:39:09.324Z,4.90
2023-03-04T16:41:41.099Z,4.67
2023-03-04T16:44:14.158Z,5.43
2023-03-04T16:46:46.072Z,4.83
2023-03-04T16:49:17.810Z,5.03
2023-03-04T16:51:51.025Z,5.47
2023-03-04T16:54:30.431Z,6.30
2023-03-04T16:57:02.390Z,5.73
2023-03-04T16:59:34.143Z,5.70
2023-03-04T17:02:17.024Z,4.67
2023-03-04T17:04:50.102Z,6.30
2023-03-04T17:07:21.869Z,6.07
2023-03-04T17:09:53.643Z,5.80
2023-03-04T17:12:25.464Z,6.97
2023-03-04T17:14:57.226Z,6.30
2023-03-04T17:17:28.980Z,5.97
2023-03-04T17:20:04.419Z,5.70
2023-03-04T17:22:36.481Z,6.10
2023-03-04T17:25:09.258Z,6.07
2023-03-04T17:27:41.410Z,5.83
2023-03-04T17:30:13.914Z,5.63
2023-03-04T17:32:45.654Z,5.07
2023-03-04T17:35:17.483Z,5.57
2023-03-04T17:37:49.261Z,4.67
2023-03-04T17:40:21.139Z,5.27
2023-03-04T17:42:52.950Z,5.17
2023-03-04T17:45:24.928Z,4.77
2023-03-04T17:47:56.892Z,5.53
2023-03-04T17:50:28.670Z,6.10
2023-03-04T17:53:00.445Z,5.50
2023-03-04T17:55:32.211Z,5.57
2023-03-04T17:58:03.935Z,5.80
2023-03-04T18:00:35.674Z,5.10
2023-03-04T18:03:12.082Z,5.43
2023-03-04T18:05:43.870Z,4.47
2023-03-04T18:08:15.621Z,4.90
2023-03-04T18:10:47.355Z,5.40
2023-03-04T18:13:19.287Z,5.83
2023-03-04T18:15:51.043Z,4.70
2023-03-04T18:18:23.015Z,4.80
2023-03-04T18:20:59.259Z,5.73
2023-03-04T18:23:31.301Z,6.03
2023-03-04T18:26:04.361Z,4.53
2023-03-04T18:28:36.326Z,4.23
2023-03-04T18:31:08.199Z,4.27
2023-03-04T18:33:39.996Z,4.63
2023-03-04T18:36:11.817Z,4.50
2023-03-04T18:38:43.882Z,4.87
2023-03-04T18:41:16.371Z,5.97
2023-03-04T18:43:48.128Z,5.43
2023-03-04T18:46:29.695Z,4.77
2023-03-04T18:49:04.870Z,4.30
2023-03-04T18:51:36.678Z,4.80
2023-03-04T18:54:08.559Z,4.37
2023-03-04T18:56:51.363Z,4.80
2023-03-04T18:59:55.135Z,4.60
2023-03-04T19:02:52.999Z,4.57
2023-03-04T19:05:28.366Z,3.73
2023-03-04T19:08:00.124Z,4.53
2023-03-04T19:10:31.999Z,4.87
2023-03-04T19:13:03.928Z,3.70
2023-03-04T19:15:35.760Z,4.67
2023-03-04T19:18:07.497Z,3.80
2023-03-04T19:20:43.826Z,3.90
2023-03-04T19:23:16.633Z,3.60
2023-03-04T19:25:48.381Z,4.70
2023-03-04T19:28:20.101Z,4.93
2023-03-04T19:30:58.723Z,3.53
2023-03-04T19:33:30.466Z,4.27
2023-03-04T19:36:04.095Z,4.30
2023-03-04T19:38:36.542Z,4.67
2023-03-04T19:41:14.352Z,5.00
2023-03-04T19:43:46.129Z,4.77
2023-03-04T19:46:18.498Z,4.00
2023-03-04T19:48:50.385Z,4.93
2023-03-04T19:51:26.106Z,4.97
2023-03-04T19:53:58.096Z,3.97
2023-03-04T19:56:30.385Z,3.83
2023-03-04T19:59:02.566Z,4.77
2023-03-04T20:01:36.987Z,3.50
2023-03-04T20:04:11.912Z,5.47
2023-03-04T20:06:48.572Z,4.00
2023-03-04T20:09:20.378Z,4.03
2023-03-04T20:11:58.710Z,4.23
2023-03-04T20:14:35.505Z,4.27
2023-03-04T20:17:07.321Z,3.73
2023-03-04T20:19:39.038Z,4.37
2023-03-04T20:22:11.043Z,4.90
2023-03-04T20:24:42.751Z,4.90
2023-03-04T20:27:15.525Z,4.57
2023-03-04T20:29:48.917Z,4.50
2023-03-04T20:32:21.100Z,4.77
2023-03-04T20:34:56.973Z,3.83
2023-03-04T20:37:28.890Z,3.67
2023-03-04T20:40:00.607Z,4.20
2023-03-04T20:42:32.360Z,4.43
2023-03-04T20:45:04.706Z,4.27
2023-03-04T20:47:39.486Z,3.80
2023-03-04T20:50:11.465Z,3.87
2023-03-04T20:52:43.201Z,4.43
2023-03-04T20:55:15.125Z,3.57
2023-03-04T20:57:49.370Z,4.27
2023-03-04T21:00:21.494Z,4.17
2023-03-04T21:02:54.978Z,3.27
2023-03-04T21:05:26.778Z,3.93
2023-03-04T21:07:58.909Z,4.00
2023-03-04T21:10:34.599Z,4.27
2023-03-04T21:13:06.359Z,4.93
2023-03-04T21:15:38.334Z,3.47
2023-03-04T21:18:10.064Z,4.60
2023-03-04T21:20:42.317Z,3.47
2023-03-04T21:23:14.138Z,4.50
2023-03-04T21:25:49.294Z,3.27
2023-03-04T21:28:21.034Z,4.20
2023-03-04T21:30:52.889Z,4.50
2023-03-04T21:33:29.493Z,3.63
2023-03-04T21:36:01.327Z,3.87
2023-03-04T21:38:33.175Z,4.03
2023-03-04T21:41:04.905Z,4.37
2023-03-04T21:43:36.581Z,3.40
2023-03-04T21:46:09.702Z,3.73
2023-03-04T21:48:43.352Z,4.60
2023-03-04T21:51:16.582Z,4.13
2023-03-04T21:53:48.353Z,3.60
2023-03-04T21:56:20.062Z,3.97
2023-03-04T21:58:51.766Z,4.53
2023-03-04T22:01:23.647Z,4.60
2023-03-04T22:03:55.357Z,4.57
2023-03-04T22:06:27.946Z,4.20
2023-03-04T22:09:01.476Z,4.37
2023-03-04T22:11:33.345Z,3.70
2023-03-04T22:14:05.616Z,3.70
2023-03-04T22:16:48.973Z,3.03
2023-03-04T22:19:30.009Z,4.27
2023-03-04T22:22:01.713Z,3.37
2023-03-04T22:24:33.602Z,4.80
2023-03-04T22:27:05.370Z,3.30
2023-03-04T22:29:37.076Z,3.73
2023-03-04T22:32:08.830Z,4.27
2023-03-04T22:34:40.652Z,4.43
2023-03-04T22:37:12.433Z,3.83
2023-03-04T22:39:44.170Z,4.30
2023-03-04T22:42:15.932Z,5.17
2023-03-04T22:44:47.638Z,5.63
2023-03-04T22:47:19.930Z,4.43
2023-03-04T22:49:51.655Z,4.50
2023-03-04T22:52:23.389Z,4.63
2023-03-04T22:54:55.090Z,4.27
2023-03-04T22:57:26.821Z,5.33
2023-03-04T22:59:58.620Z,3.97
2023-03-04T23:02:30.414Z,5.03
2023-03-04T23:05:02.229Z,5.33
2023-03-04T23:07:36.216Z,5.03
2023-03-04T23:10:13.248Z,5.37
2023-03-04T23:12:45.008Z,4.80
2023-03-04T23:15:18.286Z,4.90
2023-03-04T23:17:50.591Z,4.63
2023-03-04T23:20:22.459Z,5.70
2023-03-04T23:22:54.258Z,5.00
2023-03-04T23:25:26.047Z,5.63
2023-03-04T23:27:57.822Z,4.40
2023-03-04T23:30:29.712Z,5.63
2023-03-04T23:33:01.426Z,4.97
2023-03-04T23:35:33.171Z,5.40
2023-03-04T23:38:04.892Z,5.00
2023-03-04T23:40:36.892Z,5.00
2023-03-04T23:43:08.601Z,5.43
2023-03-04T23:45:40.396Z,5.23
2023-03-04T23:48:12.085Z,5.70
2023-03-04T23:50:53.514Z,5.17
2023-03-04T23:53:25.734Z,5.57
2023-03-04T23:55:57.548Z,6.20
2023-03-04T23:58:29.228Z,4.93
